Ana Sayfa
METAR-TAF:

METAR-TAF

Havaalanları :

Vladivostok, Rusya

Enlem: 43-07N, Boylam: 131-56E, yükseklik: 184 m

Güncel hava durumu gözlemi

Rapor saat 08:00 UTC de 40 dakika önce yapıldı.
Rüzgar güneydan 10 kt
Sıcaklık 4°C
Nem 52%
Basınç 1006 hPa
Görüş mesafesi 10 km veya daha fazla

METAR: UHWW 240800Z 19005MPS 9999 NSC 04/M05 Q1006 R25L/0///70 NOSIG RMK QFE754

Saat: 18:40 (08:40 UTC)

Tahmin

Rapor saat 08:00 UTC de 40 dakika önce yapıldı.
Ayın 24'si saat 09 UTC'den ayın 25'si saat 09 UTC'ye kadar geçerli Tahmin
Rüzgar güney/güneybatıdan 6 kt
Görüş mesafesi 10 km veya daha fazla
3000 ft yükseklikte parçalı bulutlu
Geçici
ayın 24'si saat 09 UTC'den ayın 24'si saat 12 UTC'ye kadar
Rüzgar güneydan 16 kt
2000 ft yükseklikte parçalı çok bulutlu

TAF: UHWW 240800Z 2409/2509 20003MPS 9999 SCT030 TEMPO 2409/2412 19008MPS BKN020

4.000'den fazla havaalanı için hava durumu gözlemleri ve tahminleri (METAR ve TAF raporları).

Kullanılabilir istasyonlar harita üzerinde sarı ve kırmızı noktalarla gösterilir.

İstasyonun adını görmek için fareyi noktanın üzerinde gezdirin.

Sonrasında hava gözlem ve tahminlerini görmek için tıklayın.

Haritayı değiştirmek için: yaklaştırmak için siyah artı işaretli yeşil düğmeye ve uzaklaştırmak için de eksi işaretli düğmeye hızla tıklayın; bitişik haritalar için yeşil okları kullanın.


METAR-TAF: